Sumter, SC

4:07 AM EDT on August 31, 2016 (GMT -0400)
Kingsbury | | Change Station

Elev 157 ft 33.89 °N, 80.37 °W | Updated 4 minutes ago

Mostly Cloudy
Mostly Cloudy
72.0 °F
Feels Like 72.0 °F
N
0.0
Wind Variable Wind from NNW

Today
High -- | Low -- °F
--% Chance of Precip.
Yesterday
High -- | Low -- °F
Precip. -- in
Pressure 29.98 in
Visibility 10.0 miles
Clouds Mostly Cloudy 20000 ft
Dew Point 69 °F
Humidity 91%
Rainfall 0.00 in
Snow Depth Not available.
6:54 AM 7:47 PM
Waning Crescent, 1% visible
METAR KSSC 310758Z AUTO 00000KT 10SM BKN200 23/20 A2998 RMK AO2 SLP151 T02300195 $
Pressure 29.98 in
Visibility 10.0 miles
Clouds Mostly Cloudy 20000 ft
Dew Point 69 °F
Humidity 91%
Rainfall 0.00 in
Snow Depth Not available.
6:54 AM 7:47 PM
Waning Crescent, 1% visible
METAR KSSC 310758Z AUTO 00000KT 10SM BKN200 23/20 A2998 RMK AO2 SLP151 T02300195 $

10-Day Weather Forecast

Almanac

Astronomy

Aug. 31, 2016 Rise Set
Actual Time
Civil Twilight
Nautical Twilight
Astronomical Twilight
Moon
Length of Visible Light
Length of Day
Tomorrow will be .
, % of the Moon is Illuminated

Today's Extremes

State Highs State Lows

Community

WunderPhotos

Upload Photos

1,936,038 photos uploaded!

WunderBlog® & News

Nearby

Air Quality

  Air Quality AQ Index Pollutant
Not available.

Snow Depth

Station Depth Elevation

Earthquake Activity

City Distance Mag. Time & Date
Minimum magnitude displayed is 2.5.

Coastal Water Temperatures

Place Temperature

Stations

Nearby Weather Stations

Station Location Temp. Windchill Dew Point Humidity Wind Precip. Elev Updated Type
                   

Watches & Warnings

There are currently no watches in effect.